sensor_id;sensor_type;location;lat;lon;timestamp;P1;durP1;ratioP1;P2;durP2;ratioP2
7289;SDS011;63176;52.678;13.250;2022-10-16T00:01:19;2.92;;;2.55;;
7289;SDS011;63176;52.678;13.250;2022-10-16T00:03:47;4.30;;;2.17;;
7289;SDS011;63176;52.678;13.250;2022-10-16T00:06:13;3.77;;;2.03;;
7289;SDS011;63176;52.678;13.250;2022-10-16T00:08:40;2.85;;;2.60;;
7289;SDS011;63176;52.678;13.250;2022-10-16T00:11:10;2.37;;;2.17;;
7289;SDS011;63176;52.678;13.250;2022-10-16T00:13:39;2.77;;;2.33;;
7289;SDS011;63176;52.678;13.250;2022-10-16T00:16:06;4.40;;;2.37;;
7289;SDS011;63176;52.678;13.250;2022-10-16T00:18:32;5.43;;;2.40;;
7289;SDS011;63176;52.678;13.250;2022-10-16T00:21:02;2.20;;;2.00;;
7289;SDS011;63176;52.678;13.250;2022-10-16T00:23:28;2.73;;;2.53;;
7289;SDS011;63176;52.678;13.250;2022-10-16T00:25:58;2.60;;;2.37;;
7289;SDS011;63176;52.678;13.250;2022-10-16T00:28:25;2.60;;;2.10;;
7289;SDS011;63176;52.678;13.250;2022-10-16T00:30:51;1.90;;;1.80;;
7289;SDS011;63176;52.678;13.250;2022-10-16T00:33:17;1.97;;;1.83;;
7289;SDS011;63176;52.678;13.250;2022-10-16T00:35:43;1.73;;;1.63;;
7289;SDS011;63176;52.678;13.250;2022-10-16T00:38:09;2.80;;;2.60;;
7289;SDS011;63176;52.678;13.250;2022-10-16T00:40:35;3.37;;;3.07;;
7289;SDS011;63176;52.678;13.250;2022-10-16T00:43:00;4.80;;;2.73;;
7289;SDS011;63176;52.678;13.250;2022-10-16T00:45:26;1.83;;;1.60;;
7289;SDS011;63176;52.678;13.250;2022-10-16T00:47:52;1.60;;;1.50;;
7289;SDS011;63176;52.678;13.250;2022-10-16T00:50:28;1.83;;;1.73;;
7289;SDS011;63176;52.678;13.250;2022-10-16T00:52:56;1.50;;;1.40;;
7289;SDS011;63176;52.678;13.250;2022-10-16T00:55:23;3.85;;;1.33;;
7289;SDS011;63176;52.678;13.250;2022-10-16T00:57:50;1.70;;;1.43;;
7289;SDS011;63176;52.678;13.250;2022-10-16T01:00:19;1.63;;;1.40;;
7289;SDS011;63176;52.678;13.250;2022-10-16T01:02:51;1.30;;;1.20;;
7289;SDS011;63176;52.678;13.250;2022-10-16T01:05:44;1.63;;;1.47;;
7289;SDS011;63176;52.678;13.250;2022-10-16T01:08:18;2.00;;;1.70;;
7289;SDS011;63176;52.678;13.250;2022-10-16T01:11:15;1.80;;;1.70;;
7289;SDS011;63176;52.678;13.250;2022-10-16T01:13:56;1.47;;;1.37;;
7289;SDS011;63176;52.678;13.250;2022-10-16T01:21:41;1.57;;;1.47;;
7289;SDS011;63176;52.678;13.250;2022-10-16T01:29:15;1.60;;;1.50;;
7289;SDS011;63176;52.678;13.250;2022-10-16T01:31:48;1.67;;;1.33;;
7289;SDS011;63176;52.678;13.250;2022-10-16T01:34:20;1.43;;;1.20;;
7289;SDS011;63176;52.678;13.250;2022-10-16T01:36:56;1.53;;;1.33;;
7289;SDS011;63176;52.678;13.250;2022-10-16T01:39:28;2.77;;;1.00;;
7289;SDS011;63176;52.678;13.250;2022-10-16T01:44:34;4.37;;;1.93;;
7289;SDS011;63176;52.678;13.250;2022-10-16T01:47:02;3.03;;;1.90;;
7289;SDS011;63176;52.678;13.250;2022-10-16T01:49:33;2.45;;;1.83;;
7289;SDS011;63176;52.678;13.250;2022-10-16T01:52:02;2.03;;;1.70;;
7289;SDS011;63176;52.678;13.250;2022-10-16T01:54:33;1.53;;;1.20;;
7289;SDS011;63176;52.678;13.250;2022-10-16T01:57:02;1.27;;;1.15;;
7289;SDS011;63176;52.678;13.250;2022-10-16T01:59:31;1.60;;;1.50;;
7289;SDS011;63176;52.678;13.250;2022-10-16T02:02:00;1.33;;;1.23;;
7289;SDS011;63176;52.678;13.250;2022-10-16T02:04:32;1.23;;;1.13;;
7289;SDS011;63176;52.678;13.250;2022-10-16T02:07:01;1.67;;;0.90;;
7289;SDS011;63176;52.678;13.250;2022-10-16T02:09:27;1.40;;;1.30;;
7289;SDS011;63176;52.678;13.250;2022-10-16T02:11:55;2.90;;;1.20;;
7289;SDS011;63176;52.678;13.250;2022-10-16T02:14:24;1.80;;;1.70;;
7289;SDS011;63176;52.678;13.250;2022-10-16T02:16:51;3.50;;;1.43;;
7289;SDS011;63176;52.678;13.250;2022-10-16T02:19:17;4.90;;;1.43;;
7289;SDS011;63176;52.678;13.250;2022-10-16T02:21:55;2.00;;;1.70;;
7289;SDS011;63176;52.678;13.250;2022-10-16T02:24:47;2.03;;;1.57;;
7289;SDS011;63176;52.678;13.250;2022-10-16T02:32:38;1.47;;;1.27;;
7289;SDS011;63176;52.678;13.250;2022-10-16T02:35:07;4.07;;;1.43;;
7289;SDS011;63176;52.678;13.250;2022-10-16T02:37:34;2.20;;;2.00;;
7289;SDS011;63176;52.678;13.250;2022-10-16T02:40:00;1.90;;;1.70;;
7289;SDS011;63176;52.678;13.250;2022-10-16T02:42:37;1.90;;;1.50;;
7289;SDS011;63176;52.678;13.250;2022-10-16T02:45:05;3.70;;;1.57;;
7289;SDS011;63176;52.678;13.250;2022-10-16T02:47:32;3.47;;;1.97;;
7289;SDS011;63176;52.678;13.250;2022-10-16T02:49:57;2.40;;;1.77;;
7289;SDS011;63176;52.678;13.250;2022-10-16T02:52:23;3.83;;;1.50;;
7289;SDS011;63176;52.678;13.250;2022-10-16T02:54:49;7.37;;;2.80;;
7289;SDS011;63176;52.678;13.250;2022-10-16T02:57:14;2.67;;;1.63;;
7289;SDS011;63176;52.678;13.250;2022-10-16T02:59:40;2.97;;;1.50;;
7289;SDS011;63176;52.678;13.250;2022-10-16T03:02:06;3.23;;;1.23;;
7289;SDS011;63176;52.678;13.250;2022-10-16T03:04:31;1.53;;;1.43;;
7289;SDS011;63176;52.678;13.250;2022-10-16T03:06:57;1.40;;;1.30;;
7289;SDS011;63176;52.678;13.250;2022-10-16T03:09:22;2.77;;;1.70;;
7289;SDS011;63176;52.678;13.250;2022-10-16T03:11:48;2.20;;;1.83;;
7289;SDS011;63176;52.678;13.250;2022-10-16T03:14:14;1.90;;;1.80;;
7289;SDS011;63176;52.678;13.250;2022-10-16T03:16:39;2.33;;;1.60;;
7289;SDS011;63176;52.678;13.250;2022-10-16T03:19:05;4.33;;;1.47;;
7289;SDS011;63176;52.678;13.250;2022-10-16T03:21:31;2.10;;;1.37;;
7289;SDS011;63176;52.678;13.250;2022-10-16T03:23:56;2.13;;;1.90;;
7289;SDS011;63176;52.678;13.250;2022-10-16T03:26:22;1.63;;;1.20;;
7289;SDS011;63176;52.678;13.250;2022-10-16T03:28:47;1.67;;;1.57;;
7289;SDS011;63176;52.678;13.250;2022-10-16T03:31:13;3.37;;;1.73;;
7289;SDS011;63176;52.678;13.250;2022-10-16T03:33:39;3.07;;;1.70;;
7289;SDS011;63176;52.678;13.250;2022-10-16T03:36:04;2.03;;;1.60;;
7289;SDS011;63176;52.678;13.250;2022-10-16T03:38:30;3.00;;;1.87;;
7289;SDS011;63176;52.678;13.250;2022-10-16T03:40:56;2.63;;;1.63;;
7289;SDS011;63176;52.678;13.250;2022-10-16T03:43:21;2.30;;;1.13;;
7289;SDS011;63176;52.678;13.250;2022-10-16T03:45:47;2.33;;;1.40;;
7289;SDS011;63176;52.678;13.250;2022-10-16T03:48:12;4.33;;;1.40;;
7289;SDS011;63176;52.678;13.250;2022-10-16T03:50:38;2.50;;;1.43;;
7289;SDS011;63176;52.678;13.250;2022-10-16T03:53:04;1.57;;;1.40;;
7289;SDS011;63176;52.678;13.250;2022-10-16T03:55:29;1.47;;;1.37;;
7289;SDS011;63176;52.678;13.250;2022-10-16T03:57:55;1.43;;;1.33;;
7289;SDS011;63176;52.678;13.250;2022-10-16T04:00:20;3.63;;;1.67;;
7289;SDS011;63176;52.678;13.250;2022-10-16T04:02:46;2.60;;;1.30;;
7289;SDS011;63176;52.678;13.250;2022-10-16T04:05:12;1.60;;;1.50;;
7289;SDS011;63176;52.678;13.250;2022-10-16T04:07:37;2.90;;;1.63;;
7289;SDS011;63176;52.678;13.250;2022-10-16T04:10:04;2.47;;;1.60;;
7289;SDS011;63176;52.678;13.250;2022-10-16T04:12:30;1.60;;;1.50;;
7289;SDS011;63176;52.678;13.250;2022-10-16T04:14:56;1.50;;;1.40;;
7289;SDS011;63176;52.678;13.250;2022-10-16T04:17:22;2.47;;;1.40;;
7289;SDS011;63176;52.678;13.250;2022-10-16T04:19:47;2.40;;;1.83;;
7289;SDS011;63176;52.678;13.250;2022-10-16T04:22:13;3.30;;;1.80;;
7289;SDS011;63176;52.678;13.250;2022-10-16T04:24:38;3.57;;;1.33;;
7289;SDS011;63176;52.678;13.250;2022-10-16T04:27:04;1.40;;;1.30;;
7289;SDS011;63176;52.678;13.250;2022-10-16T04:29:30;1.70;;;1.60;;
7289;SDS011;63176;52.678;13.250;2022-10-16T04:31:55;1.60;;;1.50;;
7289;SDS011;63176;52.678;13.250;2022-10-16T04:34:21;1.57;;;1.47;;
7289;SDS011;63176;52.678;13.250;2022-10-16T04:36:47;0.97;;;0.97;;
7289;SDS011;63176;52.678;13.250;2022-10-16T04:39:14;1.70;;;1.60;;
7289;SDS011;63176;52.678;13.250;2022-10-16T04:41:40;1.80;;;1.30;;
7289;SDS011;63176;52.678;13.250;2022-10-16T04:44:06;1.37;;;1.27;;
7289;SDS011;63176;52.678;13.250;2022-10-16T04:46:31;1.33;;;1.23;;
7289;SDS011;63176;52.678;13.250;2022-10-16T04:48:57;1.27;;;1.10;;
7289;SDS011;63176;52.678;13.250;2022-10-16T04:51:23;1.30;;;0.93;;
7289;SDS011;63176;52.678;13.250;2022-10-16T04:53:48;1.17;;;1.07;;
7289;SDS011;63176;52.678;13.250;2022-10-16T04:56:14;4.17;;;1.50;;
7289;SDS011;63176;52.678;13.250;2022-10-16T04:58:40;1.13;;;1.02;;
7289;SDS011;63176;52.678;13.250;2022-10-16T05:01:06;1.73;;;1.20;;
7289;SDS011;63176;52.678;13.250;2022-10-16T05:03:31;4.70;;;1.63;;
7289;SDS011;63176;52.678;13.250;2022-10-16T05:05:57;2.10;;;1.47;;
7289;SDS011;63176;52.678;13.250;2022-10-16T05:08:22;2.70;;;1.40;;
7289;SDS011;63176;52.678;13.250;2022-10-16T05:10:48;4.40;;;1.40;;
7289;SDS011;63176;52.678;13.250;2022-10-16T05:13:14;1.50;;;1.13;;
7289;SDS011;63176;52.678;13.250;2022-10-16T05:15:39;1.27;;;1.10;;
7289;SDS011;63176;52.678;13.250;2022-10-16T05:18:05;1.27;;;1.17;;
7289;SDS011;63176;52.678;13.250;2022-10-16T05:20:30;1.60;;;1.50;;
7289;SDS011;63176;52.678;13.250;2022-10-16T05:22:56;1.20;;;1.10;;
7289;SDS011;63176;52.678;13.250;2022-10-16T05:25:22;1.03;;;1.03;;
7289;SDS011;63176;52.678;13.250;2022-10-16T05:27:49;2.25;;;1.60;;
7289;SDS011;63176;52.678;13.250;2022-10-16T05:30:15;1.20;;;1.10;;
7289;SDS011;63176;52.678;13.250;2022-10-16T05:32:41;4.20;;;1.77;;
7289;SDS011;63176;52.678;13.250;2022-10-16T05:35:11;3.10;;;1.40;;
7289;SDS011;63176;52.678;13.250;2022-10-16T05:37:36;1.43;;;1.33;;
7289;SDS011;63176;52.678;13.250;2022-10-16T05:40:02;1.50;;;1.40;;
7289;SDS011;63176;52.678;13.250;2022-10-16T05:42:28;3.80;;;1.53;;
7289;SDS011;63176;52.678;13.250;2022-10-16T05:44:54;1.40;;;1.30;;
7289;SDS011;63176;52.678;13.250;2022-10-16T05:47:20;1.67;;;1.30;;
7289;SDS011;63176;52.678;13.250;2022-10-16T05:49:46;1.63;;;1.53;;
7289;SDS011;63176;52.678;13.250;2022-10-16T05:52:11;1.40;;;1.30;;
7289;SDS011;63176;52.678;13.250;2022-10-16T05:54:37;2.70;;;1.73;;
7289;SDS011;63176;52.678;13.250;2022-10-16T05:57:02;1.00;;;1.00;;
7289;SDS011;63176;52.678;13.250;2022-10-16T05:59:30;2.20;;;1.70;;
7289;SDS011;63176;52.678;13.250;2022-10-16T06:01:56;1.67;;;1.57;;
7289;SDS011;63176;52.678;13.250;2022-10-16T06:04:22;1.60;;;1.50;;
7289;SDS011;63176;52.678;13.250;2022-10-16T06:06:48;1.53;;;1.43;;
7289;SDS011;63176;52.678;13.250;2022-10-16T06:09:13;1.43;;;1.33;;
7289;SDS011;63176;52.678;13.250;2022-10-16T06:11:39;1.87;;;1.73;;
7289;SDS011;63176;52.678;13.250;2022-10-16T06:14:04;2.50;;;1.30;;
7289;SDS011;63176;52.678;13.250;2022-10-16T06:16:32;1.63;;;1.40;;
7289;SDS011;63176;52.678;13.250;2022-10-16T06:18:59;1.60;;;1.50;;
7289;SDS011;63176;52.678;13.250;2022-10-16T06:21:25;1.30;;;1.20;;
7289;SDS011;63176;52.678;13.250;2022-10-16T06:23:53;2.60;;;1.43;;
7289;SDS011;63176;52.678;13.250;2022-10-16T06:26:20;2.20;;;1.87;;
7289;SDS011;63176;52.678;13.250;2022-10-16T06:28:48;1.60;;;1.50;;
7289;SDS011;63176;52.678;13.250;2022-10-16T06:31:14;1.53;;;1.43;;
7289;SDS011;63176;52.678;13.250;2022-10-16T06:33:40;1.77;;;1.40;;
7289;SDS011;63176;52.678;13.250;2022-10-16T06:36:07;1.57;;;1.47;;
7289;SDS011;63176;52.678;13.250;2022-10-16T06:38:35;1.57;;;1.40;;
7289;SDS011;63176;52.678;13.250;2022-10-16T06:41:01;5.93;;;2.03;;
7289;SDS011;63176;52.678;13.250;2022-10-16T06:43:31;2.60;;;1.40;;
7289;SDS011;63176;52.678;13.250;2022-10-16T06:45:57;1.67;;;1.57;;
7289;SDS011;63176;52.678;13.250;2022-10-16T06:48:24;1.77;;;1.27;;
7289;SDS011;63176;52.678;13.250;2022-10-16T06:53:37;2.27;;;1.30;;
7289;SDS011;63176;52.678;13.250;2022-10-16T06:56:08;2.50;;;1.17;;
7289;SDS011;63176;52.678;13.250;2022-10-16T06:58:34;1.50;;;1.40;;
7289;SDS011;63176;52.678;13.250;2022-10-16T07:01:00;1.60;;;1.50;;
7289;SDS011;63176;52.678;13.250;2022-10-16T07:03:25;2.03;;;1.30;;
7289;SDS011;63176;52.678;13.250;2022-10-16T07:05:51;1.97;;;1.50;;
7289;SDS011;63176;52.678;13.250;2022-10-16T07:08:17;2.23;;;2.03;;
7289;SDS011;63176;52.678;13.250;2022-10-16T07:10:42;2.63;;;1.87;;
7289;SDS011;63176;52.678;13.250;2022-10-16T07:13:08;2.13;;;1.93;;
7289;SDS011;63176;52.678;13.250;2022-10-16T07:15:33;1.73;;;1.63;;
7289;SDS011;63176;52.678;13.250;2022-10-16T07:17:59;1.73;;;1.63;;
7289;SDS011;63176;52.678;13.250;2022-10-16T07:20:25;2.60;;;2.33;;
7289;SDS011;63176;52.678;13.250;2022-10-16T07:22:50;1.53;;;1.43;;
7289;SDS011;63176;52.678;13.250;2022-10-16T07:25:16;2.03;;;1.53;;
7289;SDS011;63176;52.678;13.250;2022-10-16T07:27:42;1.60;;;1.50;;
7289;SDS011;63176;52.678;13.250;2022-10-16T07:30:08;1.27;;;1.17;;
7289;SDS011;63176;52.678;13.250;2022-10-16T07:32:34;2.70;;;1.60;;
7289;SDS011;63176;52.678;13.250;2022-10-16T07:35:00;1.33;;;1.23;;
7289;SDS011;63176;52.678;13.250;2022-10-16T07:37:25;1.57;;;1.47;;
7289;SDS011;63176;52.678;13.250;2022-10-16T07:39:51;1.43;;;1.33;;
7289;SDS011;63176;52.678;13.250;2022-10-16T07:42:16;1.93;;;1.70;;
7289;SDS011;63176;52.678;13.250;2022-10-16T07:44:42;1.20;;;1.20;;
7289;SDS011;63176;52.678;13.250;2022-10-16T07:47:08;2.40;;;1.20;;
7289;SDS011;63176;52.678;13.250;2022-10-16T07:49:34;1.50;;;1.40;;
7289;SDS011;63176;52.678;13.250;2022-10-16T07:51:59;2.50;;;1.70;;
7289;SDS011;63176;52.678;13.250;2022-10-16T07:54:25;2.37;;;1.30;;
7289;SDS011;63176;52.678;13.250;2022-10-16T07:56:50;2.57;;;1.50;;
7289;SDS011;63176;52.678;13.250;2022-10-16T07:59:16;1.57;;;1.47;;
7289;SDS011;63176;52.678;13.250;2022-10-16T08:01:42;1.20;;;1.10;;
7289;SDS011;63176;52.678;13.250;2022-10-16T08:04:08;1.87;;;1.63;;
7289;SDS011;63176;52.678;13.250;2022-10-16T08:06:35;1.60;;;1.50;;
7289;SDS011;63176;52.678;13.250;2022-10-16T08:09:02;2.47;;;1.60;;
7289;SDS011;63176;52.678;13.250;2022-10-16T08:11:28;3.23;;;1.60;;
7289;SDS011;63176;52.678;13.250;2022-10-16T08:13:54;2.20;;;1.60;;
7289;SDS011;63176;52.678;13.250;2022-10-16T08:16:20;6.70;;;1.90;;
7289;SDS011;63176;52.678;13.250;2022-10-16T08:18:46;1.70;;;1.60;;
7289;SDS011;63176;52.678;13.250;2022-10-16T08:21:13;1.70;;;1.60;;
7289;SDS011;63176;52.678;13.250;2022-10-16T08:23:40;2.50;;;2.07;;
7289;SDS011;63176;52.678;13.250;2022-10-16T08:26:06;1.50;;;1.37;;
7289;SDS011;63176;52.678;13.250;2022-10-16T08:28:32;1.40;;;1.30;;
7289;SDS011;63176;52.678;13.250;2022-10-16T08:31:12;1.40;;;1.30;;
7289;SDS011;63176;52.678;13.250;2022-10-16T08:33:40;1.63;;;1.30;;
7289;SDS011;63176;52.678;13.250;2022-10-16T08:36:06;2.03;;;1.50;;
7289;SDS011;63176;52.678;13.250;2022-10-16T08:38:33;1.67;;;1.27;;
7289;SDS011;63176;52.678;13.250;2022-10-16T08:49:32;1.60;;;1.50;;
7289;SDS011;63176;52.678;13.250;2022-10-16T08:51:58;2.03;;;1.40;;
7289;SDS011;63176;52.678;13.250;2022-10-16T08:54:37;1.20;;;1.10;;
7289;SDS011;63176;52.678;13.250;2022-10-16T08:57:18;1.30;;;1.20;;
7289;SDS011;63176;52.678;13.250;2022-10-16T08:59:45;1.27;;;1.17;;
7289;SDS011;63176;52.678;13.250;2022-10-16T09:13:30;1.83;;;1.60;;
7289;SDS011;63176;52.678;13.250;2022-10-16T09:16:01;4.70;;;2.27;;
7289;SDS011;63176;52.678;13.250;2022-10-16T09:21:18;2.50;;;2.27;;
7289;SDS011;63176;52.678;13.250;2022-10-16T09:23:50;2.20;;;1.93;;
7289;SDS011;63176;52.678;13.250;2022-10-16T09:26:16;2.37;;;2.03;;
7289;SDS011;63176;52.678;13.250;2022-10-16T09:28:44;1.80;;;1.70;;
7289;SDS011;63176;52.678;13.250;2022-10-16T09:31:15;1.60;;;1.50;;
7289;SDS011;63176;52.678;13.250;2022-10-16T09:33:43;1.63;;;1.53;;
7289;SDS011;63176;52.678;13.250;2022-10-16T09:36:10;1.30;;;1.20;;
7289;SDS011;63176;52.678;13.250;2022-10-16T09:38:38;2.57;;;2.00;;
7289;SDS011;63176;52.678;13.250;2022-10-16T09:48:57;3.30;;;1.60;;
7289;SDS011;63176;52.678;13.250;2022-10-16T09:51:31;1.87;;;1.60;;
7289;SDS011;63176;52.678;13.250;2022-10-16T09:54:11;1.40;;;1.30;;
7289;SDS011;63176;52.678;13.250;2022-10-16T09:56:38;1.53;;;1.43;;
7289;SDS011;63176;52.678;13.250;2022-10-16T09:59:14;1.30;;;1.20;;
7289;SDS011;63176;52.678;13.250;2022-10-16T10:01:43;1.90;;;1.13;;
7289;SDS011;63176;52.678;13.250;2022-10-16T10:04:11;2.90;;;1.80;;
7289;SDS011;63176;52.678;13.250;2022-10-16T10:06:40;3.37;;;1.87;;
7289;SDS011;63176;52.678;13.250;2022-10-16T10:16:49;2.50;;;1.80;;
7289;SDS011;63176;52.678;13.250;2022-10-16T10:19:26;1.53;;;1.43;;
7289;SDS011;63176;52.678;13.250;2022-10-16T10:21:52;1.63;;;1.37;;
7289;SDS011;63176;52.678;13.250;2022-10-16T10:24:18;1.37;;;1.10;;
7289;SDS011;63176;52.678;13.250;2022-10-16T10:26:47;2.60;;;1.53;;
7289;SDS011;63176;52.678;13.250;2022-10-16T10:48:03;1.73;;;1.30;;
7289;SDS011;63176;52.678;13.250;2022-10-16T10:53:18;1.37;;;1.27;;
7289;SDS011;63176;52.678;13.250;2022-10-16T10:56:04;2.70;;;1.47;;
7289;SDS011;63176;52.678;13.250;2022-10-16T10:58:39;1.47;;;1.27;;
7289;SDS011;63176;52.678;13.250;2022-10-16T11:06:57;1.87;;;1.70;;
7289;SDS011;63176;52.678;13.250;2022-10-16T11:14:40;2.63;;;1.60;;
7289;SDS011;63176;52.678;13.250;2022-10-16T11:17:38;2.43;;;1.50;;
7289;SDS011;63176;52.678;13.250;2022-10-16T11:20:29;2.13;;;1.57;;
7289;SDS011;63176;52.678;13.250;2022-10-16T11:23:20;3.50;;;2.27;;
7289;SDS011;63176;52.678;13.250;2022-10-16T11:25:51;2.60;;;1.60;;
7289;SDS011;63176;52.678;13.250;2022-10-16T11:28:23;6.30;;;1.80;;
7289;SDS011;63176;52.678;13.250;2022-10-16T11:31:03;2.40;;;1.53;;
7289;SDS011;63176;52.678;13.250;2022-10-16T11:33:38;1.50;;;1.33;;
7289;SDS011;63176;52.678;13.250;2022-10-16T11:41:22;1.93;;;1.50;;
7289;SDS011;63176;52.678;13.250;2022-10-16T11:55:26;1.70;;;1.60;;
7289;SDS011;63176;52.678;13.250;2022-10-16T11:58:05;2.83;;;1.80;;
7289;SDS011;63176;52.678;13.250;2022-10-16T12:06:13;2.07;;;1.43;;
7289;SDS011;63176;52.678;13.250;2022-10-16T12:08:45;1.27;;;1.17;;
7289;SDS011;63176;52.678;13.250;2022-10-16T12:16:59;3.00;;;1.00;;
7289;SDS011;63176;52.678;13.250;2022-10-16T12:19:25;3.77;;;1.00;;
7289;SDS011;63176;52.678;13.250;2022-10-16T12:21:56;1.33;;;1.23;;
7289;SDS011;63176;52.678;13.250;2022-10-16T12:26:58;2.07;;;1.07;;
7289;SDS011;63176;52.678;13.250;2022-10-16T12:29:30;1.37;;;1.03;;
7289;SDS011;63176;52.678;13.250;2022-10-16T12:31:59;2.60;;;1.13;;
7289;SDS011;63176;52.678;13.250;2022-10-16T12:34:37;1.10;;;0.90;;
7289;SDS011;63176;52.678;13.250;2022-10-16T12:37:11;1.40;;;1.13;;
7289;SDS011;63176;52.678;13.250;2022-10-16T12:39:44;1.90;;;1.00;;
7289;SDS011;63176;52.678;13.250;2022-10-16T12:42:44;1.23;;;1.13;;
7289;SDS011;63176;52.678;13.250;2022-10-16T12:45:21;3.00;;;0.73;;
7289;SDS011;63176;52.678;13.250;2022-10-16T12:47:51;0.70;;;0.70;;
7289;SDS011;63176;52.678;13.250;2022-10-16T12:50:35;2.10;;;0.70;;
7289;SDS011;63176;52.678;13.250;2022-10-16T12:53:03;0.70;;;0.50;;
7289;SDS011;63176;52.678;13.250;2022-10-16T12:55:44;0.80;;;0.63;;
7289;SDS011;63176;52.678;13.250;2022-10-16T13:01:07;0.70;;;0.50;;
7289;SDS011;63176;52.678;13.250;2022-10-16T13:04:27;1.23;;;0.60;;
7289;SDS011;63176;52.678;13.250;2022-10-16T13:07:17;1.37;;;0.80;;
7289;SDS011;63176;52.678;13.250;2022-10-16T13:12:41;0.50;;;0.50;;
7289;SDS011;63176;52.678;13.250;2022-10-16T13:18:22;0.50;;;0.40;;
7289;SDS011;63176;52.678;13.250;2022-10-16T13:21:20;0.50;;;0.40;;
7289;SDS011;63176;52.678;13.250;2022-10-16T13:29:01;1.20;;;0.77;;
7289;SDS011;63176;52.678;13.250;2022-10-16T13:31:28;0.80;;;0.60;;
7289;SDS011;63176;52.678;13.250;2022-10-16T13:33:55;0.70;;;0.70;;
7289;SDS011;63176;52.678;13.250;2022-10-16T13:36:43;2.00;;;1.20;;
7289;SDS011;63176;52.678;13.250;2022-10-16T13:39:24;1.10;;;1.00;;
7289;SDS011;63176;52.678;13.250;2022-10-16T13:44:51;2.70;;;2.20;;
7289;SDS011;63176;52.678;13.250;2022-10-16T13:47:18;4.80;;;1.60;;
7289;SDS011;63176;52.678;13.250;2022-10-16T13:49:46;3.23;;;1.63;;
7289;SDS011;63176;52.678;13.250;2022-10-16T13:52:23;3.00;;;1.40;;
7289;SDS011;63176;52.678;13.250;2022-10-16T13:54:49;2.10;;;1.87;;
7289;SDS011;63176;52.678;13.250;2022-10-16T13:57:15;3.03;;;2.13;;
7289;SDS011;63176;52.678;13.250;2022-10-16T13:59:42;2.50;;;1.90;;
7289;SDS011;63176;52.678;13.250;2022-10-16T14:02:13;1.77;;;0.80;;
7289;SDS011;63176;52.678;13.250;2022-10-16T14:04:50;2.87;;;1.97;;
7289;SDS011;63176;52.678;13.250;2022-10-16T14:07:29;1.83;;;1.73;;
7289;SDS011;63176;52.678;13.250;2022-10-16T14:10:05;2.10;;;1.90;;
7289;SDS011;63176;52.678;13.250;2022-10-16T14:12:43;1.50;;;1.40;;
7289;SDS011;63176;52.678;13.250;2022-10-16T14:15:16;3.50;;;1.80;;
7289;SDS011;63176;52.678;13.250;2022-10-16T14:17:44;0.70;;;0.70;;
7289;SDS011;63176;52.678;13.250;2022-10-16T14:20:14;0.90;;;0.60;;
7289;SDS011;63176;52.678;13.250;2022-10-16T14:22:41;1.60;;;1.00;;
7289;SDS011;63176;52.678;13.250;2022-10-16T14:27:45;1.53;;;1.30;;
7289;SDS011;63176;52.678;13.250;2022-10-16T14:30:25;1.13;;;1.03;;
7289;SDS011;63176;52.678;13.250;2022-10-16T14:32:58;1.37;;;1.27;;
7289;SDS011;63176;52.678;13.250;2022-10-16T14:35:24;0.77;;;0.60;;
7289;SDS011;63176;52.678;13.250;2022-10-16T14:37:53;0.57;;;0.57;;
7289;SDS011;63176;52.678;13.250;2022-10-16T14:40:20;1.27;;;0.60;;
7289;SDS011;63176;52.678;13.250;2022-10-16T14:42:49;0.97;;;0.87;;
7289;SDS011;63176;52.678;13.250;2022-10-16T14:45:18;1.80;;;1.60;;
7289;SDS011;63176;52.678;13.250;2022-10-16T14:47:50;1.33;;;1.10;;
7289;SDS011;63176;52.678;13.250;2022-10-16T14:50:19;1.50;;;1.40;;
7289;SDS011;63176;52.678;13.250;2022-10-16T14:52:45;5.43;;;0.80;;
7289;SDS011;63176;52.678;13.250;2022-10-16T14:55:10;1.13;;;0.77;;
7289;SDS011;63176;52.678;13.250;2022-10-16T14:57:36;2.00;;;0.90;;
7289;SDS011;63176;52.678;13.250;2022-10-16T15:00:08;2.03;;;1.83;;
7289;SDS011;63176;52.678;13.250;2022-10-16T15:02:40;2.47;;;1.50;;
7289;SDS011;63176;52.678;13.250;2022-10-16T15:05:13;1.80;;;1.53;;
7289;SDS011;63176;52.678;13.250;2022-10-16T15:07:44;1.77;;;1.67;;
7289;SDS011;63176;52.678;13.250;2022-10-16T15:10:10;4.40;;;2.23;;
7289;SDS011;63176;52.678;13.250;2022-10-16T15:12:37;1.30;;;1.20;;
7289;SDS011;63176;52.678;13.250;2022-10-16T15:15:15;3.50;;;1.37;;
7289;SDS011;63176;52.678;13.250;2022-10-16T15:17:45;1.97;;;0.93;;
7289;SDS011;63176;52.678;13.250;2022-10-16T15:20:11;2.53;;;0.80;;
7289;SDS011;63176;52.678;13.250;2022-10-16T15:22:36;1.20;;;0.83;;
7289;SDS011;63176;52.678;13.250;2022-10-16T15:25:08;1.10;;;0.80;;
7289;SDS011;63176;52.678;13.250;2022-10-16T15:27:52;1.60;;;1.23;;
7289;SDS011;63176;52.678;13.250;2022-10-16T15:30:17;1.27;;;0.90;;
7289;SDS011;63176;52.678;13.250;2022-10-16T15:32:43;2.40;;;0.93;;
7289;SDS011;63176;52.678;13.250;2022-10-16T15:35:09;0.93;;;0.90;;
7289;SDS011;63176;52.678;13.250;2022-10-16T15:37:34;0.97;;;0.80;;
7289;SDS011;63176;52.678;13.250;2022-10-16T15:40:00;1.10;;;0.83;;
7289;SDS011;63176;52.678;13.250;2022-10-16T15:42:26;1.10;;;1.00;;
7289;SDS011;63176;52.678;13.250;2022-10-16T15:44:51;6.60;;;1.40;;
7289;SDS011;63176;52.678;13.250;2022-10-16T15:47:17;0.83;;;0.83;;
7289;SDS011;63176;52.678;13.250;2022-10-16T15:49:42;0.90;;;0.80;;
7289;SDS011;63176;52.678;13.250;2022-10-16T15:52:08;2.10;;;1.20;;
7289;SDS011;63176;52.678;13.250;2022-10-16T15:54:34;3.60;;;1.40;;
7289;SDS011;63176;52.678;13.250;2022-10-16T15:56:59;1.13;;;1.03;;
7289;SDS011;63176;52.678;13.250;2022-10-16T15:59:25;1.83;;;1.40;;
7289;SDS011;63176;52.678;13.250;2022-10-16T16:01:50;3.97;;;1.30;;
7289;SDS011;63176;52.678;13.250;2022-10-16T16:04:16;1.63;;;1.40;;
7289;SDS011;63176;52.678;13.250;2022-10-16T16:06:42;2.90;;;1.60;;
7289;SDS011;63176;52.678;13.250;2022-10-16T16:09:10;1.63;;;1.40;;
7289;SDS011;63176;52.678;13.250;2022-10-16T16:11:36;2.33;;;1.70;;
7289;SDS011;63176;52.678;13.250;2022-10-16T16:14:04;2.30;;;1.37;;
7289;SDS011;63176;52.678;13.250;2022-10-16T16:16:35;1.70;;;1.50;;
7289;SDS011;63176;52.678;13.250;2022-10-16T16:19:03;4.10;;;1.70;;
7289;SDS011;63176;52.678;13.250;2022-10-16T16:21:31;3.23;;;1.60;;
7289;SDS011;63176;52.678;13.250;2022-10-16T16:23:56;2.50;;;1.30;;
7289;SDS011;63176;52.678;13.250;2022-10-16T16:26:23;1.37;;;1.30;;
7289;SDS011;63176;52.678;13.250;2022-10-16T16:29:00;2.30;;;1.40;;
7289;SDS011;63176;52.678;13.250;2022-10-16T16:31:27;1.73;;;1.30;;
7289;SDS011;63176;52.678;13.250;2022-10-16T16:33:54;2.20;;;1.70;;
7289;SDS011;63176;52.678;13.250;2022-10-16T16:36:22;1.57;;;1.47;;
7289;SDS011;63176;52.678;13.250;2022-10-16T16:38:48;1.50;;;1.40;;
7289;SDS011;63176;52.678;13.250;2022-10-16T16:41:18;2.00;;;1.30;;
7289;SDS011;63176;52.678;13.250;2022-10-16T16:43:45;2.17;;;1.20;;
7289;SDS011;63176;52.678;13.250;2022-10-16T16:46:12;1.17;;;1.00;;
7289;SDS011;63176;52.678;13.250;2022-10-16T16:48:38;1.60;;;1.50;;
7289;SDS011;63176;52.678;13.250;2022-10-16T16:51:04;1.70;;;1.60;;
7289;SDS011;63176;52.678;13.250;2022-10-16T16:53:35;1.43;;;1.33;;
7289;SDS011;63176;52.678;13.250;2022-10-16T16:56:02;5.30;;;1.70;;
7289;SDS011;63176;52.678;13.250;2022-10-16T16:58:28;1.50;;;1.30;;
7289;SDS011;63176;52.678;13.250;2022-10-16T17:00:54;2.40;;;1.40;;
7289;SDS011;63176;52.678;13.250;2022-10-16T17:03:19;4.30;;;1.70;;
7289;SDS011;63176;52.678;13.250;2022-10-16T17:05:54;3.13;;;1.90;;
7289;SDS011;63176;52.678;13.250;2022-10-16T17:08:24;2.17;;;1.73;;
7289;SDS011;63176;52.678;13.250;2022-10-16T17:10:50;6.03;;;2.23;;
7289;SDS011;63176;52.678;13.250;2022-10-16T17:13:18;3.78;;;2.45;;
7289;SDS011;63176;52.678;13.250;2022-10-16T17:15:48;4.25;;;2.50;;
7289;SDS011;63176;52.678;13.250;2022-10-16T17:18:14;5.22;;;4.10;;
7289;SDS011;63176;52.678;13.250;2022-10-16T17:20:40;5.63;;;3.35;;